Time;durP1;ratioP1;P1;durP2;ratioP2;P2;SDS_P1;SDS_P2;PMS_P1;PMS_P2;Temp;Humidity;BMP_temperature;BMP_pressure;BME280_temperature;BME280_humidity;BME280_pressure;Samples;Min_cycle;Max_cycle;Signal;HPM_P1;HPM_P2
2021/12/27 00:00:45;;;;;;;;;;;;;;;3.38;76.14;98382.75;4972209;28;20017;-90
2021/12/27 00:03:11;;;;;;;;;;;;;;;3.40;76.22;98379.16;4972708;28;19926;-91
2021/12/27 00:05:36;;;;;;;;;;;;;;;3.40;76.30;98376.56;4969321;28;19926;-91
2021/12/27 00:08:01;;;;;;;;;;;;;;;3.42;76.07;98390.44;4954934;28;20400;-90
2021/12/27 00:10:30;;;;;;;;;;;;;;;3.45;76.26;98384.25;4972827;28;19973;-86
2021/12/27 00:12:56;;;;;;;;;;;;;;;3.45;76.22;98374.63;4972478;28;19930;-87
2021/12/27 00:15:21;;;;;;;;;;;;;;;3.48;76.52;98375.41;4955088;28;19922;-90
2021/12/27 00:17:47;;;;;;;;;;;;;;;3.49;76.46;98377.13;4954435;28;19977;-86
2021/12/27 00:20:17;;;;;;;;;;;;;;;3.53;76.70;98376.13;4953809;28;20247;-91
2021/12/27 00:22:43;;;;;;;;;;;;;;;3.51;76.54;98375.28;4955031;28;19926;-88
2021/12/27 00:25:09;;;;;;;;;;;;;;;3.56;76.74;98360.28;4955248;28;19922;-91
2021/12/27 00:27:34;;;;;;;;;;;;;;;3.57;76.68;98368.06;4972746;28;19965;-92
2021/12/27 00:30:00;;;;;;;;;;;;;;;3.58;76.73;98369.78;4955793;28;20005;-87
2021/12/27 00:32:25;;;;;;;;;;;;;;;3.59;76.78;98370.63;4972449;28;19926;-87
2021/12/27 00:34:51;;;;;;;;;;;;;;;3.59;76.87;98358.41;4971638;28;20286;-91
2021/12/27 00:37:17;;;;;;;;;;;;;;;3.64;76.92;98363.47;4965918;28;19926;-86
2021/12/27 00:39:42;;;;;;;;;;;;;;;3.64;76.99;98363.47;4955499;28;19919;-92
2021/12/27 00:42:07;;;;;;;;;;;;;;;3.66;76.80;98356.41;4958896;28;19923;-90
2021/12/27 00:44:33;;;;;;;;;;;;;;;3.68;77.12;98358.97;4958926;28;20345;-92
2021/12/27 00:46:59;;;;;;;;;;;;;;;3.67;77.08;98360.75;4975438;28;19954;-91
2021/12/27 00:49:24;;;;;;;;;;;;;;;3.69;77.14;98350.19;4958151;28;19926;-91
2021/12/27 00:51:50;;;;;;;;;;;;;;;3.73;77.48;98339.53;4976070;28;20385;-91
2021/12/27 00:54:15;;;;;;;;;;;;;;;3.86;77.85;98336.44;4976325;28;19933;-91
2021/12/27 00:56:41;;;;;;;;;;;;;;;4.01;79.08;98335.84;4958780;28;19922;-91
2021/12/27 00:59:06;;;;;;;;;;;;;;;4.12;80.52;98331.03;4959105;28;19922;-92
2021/12/27 01:01:31;;;;;;;;;;;;;;;4.21;81.84;98339.44;4959167;28;19980;-91
2021/12/27 01:03:59;;;;;;;;;;;;;;;4.26;83.12;98340.09;4958136;28;19922;-91
2021/12/27 01:06:24;;;;;;;;;;;;;;;4.28;84.11;98338.31;4958849;28;19922;-86
2021/12/27 01:08:49;;;;;;;;;;;;;;;4.27;84.93;98336.56;4959114;28;19918;-86
2021/12/27 01:14:15;;;;;;;;;;;;;;;4.25;86.30;98333.19;4943603;28;20358;-86
2021/12/27 01:16:42;;;;;;;;;;;;;;;4.21;86.84;98336.81;4955515;28;19922;-91
2021/12/27 01:19:07;;;;;;;;;;;;;;;4.14;87.33;98341.47;4957476;28;20396;-88
2021/12/27 01:21:33;;;;;;;;;;;;;;;4.06;87.74;98339.13;4958141;28;19922;-90
2021/12/27 01:23:58;;;;;;;;;;;;;;;3.98;88.34;98346.44;4958345;28;20401;-88
2021/12/27 01:26:25;;;;;;;;;;;;;;;3.88;88.99;98335.47;4958473;28;19934;-91
2021/12/27 01:28:51;;;;;;;;;;;;;;;3.80;89.66;98327.91;4975203;28;19926;-88
2021/12/27 01:31:17;;;;;;;;;;;;;;;3.72;90.75;98334.34;4974686;28;19941;-87
2021/12/27 01:33:44;;;;;;;;;;;;;;;3.69;91.94;98337.94;4974973;28;19922;-92
2021/12/27 01:36:10;;;;;;;;;;;;;;;3.71;93.18;98341.34;4958060;28;20296;-87
2021/12/27 01:38:36;;;;;;;;;;;;;;;3.69;94.57;98324.84;4958283;28;20028;-85
2021/12/27 01:41:03;;;;;;;;;;;;;;;3.75;96.36;98324.63;4974475;28;19914;-87
2021/12/27 01:43:29;;;;;;;;;;;;;;;3.90;98.35;98323.16;4958257;28;19929;-87
2021/12/27 01:45:56;;;;;;;;;;;;;;;4.06;100.00;98317.31;4973791;28;20013;-94
2021/12/27 01:48:24;;;;;;;;;;;;;;;4.24;100.00;98328.84;4957107;28;19914;-90
2021/12/27 01:50:50;;;;;;;;;;;;;;;4.40;100.00;98321.19;4975101;28;20302;-89
2021/12/27 01:53:17;;;;;;;;;;;;;;;4.50;100.00;98319.88;4955934;28;19934;-88
2021/12/27 01:55:43;;;;;;;;;;;;;;;4.58;100.00;98319.56;4973322;28;19922;-91
2021/12/27 01:58:09;;;;;;;;;;;;;;;4.65;100.00;98316.63;4956913;28;20362;-88
2021/12/27 02:00:37;;;;;;;;;;;;;;;4.72;100.00;98317.22;4973065;28;19950;-89
2021/12/27 02:03:03;;;;;;;;;;;;;;;4.77;100.00;98331.03;4974415;28;20358;-88
2021/12/27 02:05:29;;;;;;;;;;;;;;;4.79;100.00;98328.34;4974053;28;19918;-89
2021/12/27 02:07:54;;;;;;;;;;;;;;;4.85;100.00;98333.28;4974490;28;20443;-89
2021/12/27 02:10:19;;;;;;;;;;;;;;;4.87;100.00;98331.47;4957691;28;20405;-91
2021/12/27 02:12:45;;;;;;;;;;;;;;;4.91;100.00;98331.28;4956408;28;19949;-92
2021/12/27 02:15:11;;;;;;;;;;;;;;;4.95;100.00;98329.38;4956408;28;19933;-90
2021/12/27 02:17:37;;;;;;;;;;;;;;;4.98;100.00;98325.75;4973974;28;20288;-87
2021/12/27 02:20:04;;;;;;;;;;;;;;;5.00;100.00;98324.78;4956265;28;19926;-91
2021/12/27 02:22:34;;;;;;;;;;;;;;;5.05;100.00;98324.56;4973915;28;19929;-89
2021/12/27 02:25:00;;;;;;;;;;;;;;;5.09;100.00;98320.91;4974169;28;20012;-88
2021/12/27 02:27:25;;;;;;;;;;;;;;;5.13;100.00;98319.00;4974476;28;20020;-87
2021/12/27 02:29:50;;;;;;;;;;;;;;;5.16;100.00;98311.81;4957124;28;19922;-88
2021/12/27 02:32:15;;;;;;;;;;;;;;;5.18;100.00;98312.59;4956568;28;20024;-88
2021/12/27 02:34:41;;;;;;;;;;;;;;;5.19;100.00;98311.69;4955378;28;19922;-88
2021/12/27 03:21:15;;;;;;;;;;;;;;;5.64;100.00;98263.22;4972633;28;20336;-85
2021/12/27 03:23:41;;;;;;;;;;;;;;;5.67;100.00;98264.03;4973773;28;19922;-86
2021/12/27 03:26:07;;;;;;;;;;;;;;;5.69;100.00;98263.00;4973609;28;20038;-85
2021/12/27 03:28:33;;;;;;;;;;;;;;;5.73;100.00;98266.38;4973832;28;19926;-84
2021/12/27 03:30:58;;;;;;;;;;;;;;;5.73;100.00;98269.84;4973723;28;20000;-83
2021/12/27 03:33:24;;;;;;;;;;;;;;;5.77;100.00;98273.16;4972334;28;19926;-84
2021/12/27 03:36:11;;;;;;;;;;;;;;;5.79;100.00;98271.31;4973435;28;19925;-83
2021/12/27 03:38:45;;;;;;;;;;;;;;;5.77;100.00;98260.84;4973657;28;20334;-94
2021/12/27 03:41:12;;;;;;;;;;;;;;;5.81;100.00;98264.22;4974234;28;19925;-83
2021/12/27 03:43:38;;;;;;;;;;;;;;;5.84;100.00;98253.56;4956279;28;19953;-87
2021/12/27 03:46:03;;;;;;;;;;;;;;;5.85;100.00;98247.34;4973630;28;19969;-83
2021/12/27 03:48:28;;;;;;;;;;;;;;;5.86;100.00;98249.06;4972305;28;19918;-94
2021/12/27 03:50:54;;;;;;;;;;;;;;;5.88;100.00;98241.94;4973690;28;20421;-84
2021/12/27 03:53:19;;;;;;;;;;;;;;;5.90;100.00;98242.72;4974096;28;19925;-83
2021/12/27 03:55:44;;;;;;;;;;;;;;;5.90;100.00;98241.88;4973390;28;19922;-83
2021/12/27 03:58:22;;;;;;;;;;;;;;;5.04;100.00;98242.34;4973291;28;20309;-83
2021/12/27 04:01:00;;;;;;;;;;;;;;;4.47;100.00;98239.56;4973078;28;19914;-85
2021/12/27 04:03:26;;;;;;;;;;;;;;;4.26;100.00;98243.09;4954562;28;19942;-85
2021/12/27 04:05:51;;;;;;;;;;;;;;;4.23;100.00;98235.34;4955830;28;19914;-85
2021/12/27 04:08:18;;;;;;;;;;;;;;;4.08;100.00;98239.47;4955921;28;19921;-85
2021/12/27 04:10:44;;;;;;;;;;;;;;;3.94;99.88;98240.03;4973206;28;19914;-93
2021/12/27 04:13:11;;;;;;;;;;;;;;;3.86;99.11;98232.50;4972981;28;19922;-85
2021/12/27 04:15:36;;;;;;;;;;;;;;;3.82;98.08;98230.91;4974629;28;19922;-87
2021/12/27 04:18:02;;;;;;;;;;;;;;;3.72;97.49;98230.41;4975912;28;20228;-92
2021/12/27 04:20:28;;;;;;;;;;;;;;;3.71;97.26;98240.97;4959463;28;19926;-85
2021/12/27 04:22:53;;;;;;;;;;;;;;;3.71;96.92;98231.31;4959642;28;20365;-91
2021/12/27 04:25:20;;;;;;;;;;;;;;;3.56;96.50;98234.56;4976996;28;19922;-85
2021/12/27 04:27:45;;;;;;;;;;;;;;;3.59;96.41;98232.66;4976206;28;20138;-87
2021/12/27 04:30:11;;;;;;;;;;;;;;;3.57;96.56;98231.84;4959418;28;19952;-85
2021/12/27 04:32:36;;;;;;;;;;;;;;;3.54;96.09;98228.50;4977109;28;19969;-84
2021/12/27 04:35:02;;;;;;;;;;;;;;;3.44;95.84;98225.41;4958348;28;19925;-87
2021/12/27 04:37:30;;;;;;;;;;;;;;;3.62;98.16;98224.69;4976557;28;19973;-84
2021/12/27 04:39:55;;;;;;;;;;;;;;;3.56;98.65;98227.56;4976677;28;20377;-83
2021/12/27 04:42:21;;;;;;;;;;;;;;;3.54;99.13;98225.88;4976549;28;19918;-91
2021/12/27 04:44:47;;;;;;;;;;;;;;;3.47;99.19;98213.97;4975774;28;20005;-82
2021/12/27 04:47:15;;;;;;;;;;;;;;;3.45;99.11;98217.50;4976485;28;19964;-82
2021/12/27 04:49:41;;;;;;;;;;;;;;;3.42;99.21;98214.97;4975240;28;19925;-82
2021/12/27 04:52:06;;;;;;;;;;;;;;;3.36;98.70;98209.13;4976592;28;19918;-82
2021/12/27 04:54:31;;;;;;;;;;;;;;;3.40;99.11;98208.97;4976475;28;20596;-82
2021/12/27 04:56:57;;;;;;;;;;;;;;;3.31;98.19;98211.94;4958890;28;19918;-89
2021/12/27 04:59:22;;;;;;;;;;;;;;;3.28;97.81;98204.19;4976303;28;20045;-82
2021/12/27 05:01:47;;;;;;;;;;;;;;;3.33;97.96;98204.03;4976472;28;19953;-82
2021/12/27 05:04:12;;;;;;;;;;;;;;;3.29;97.80;98205.91;4957722;28;20017;-84
2021/12/27 05:06:38;;;;;;;;;;;;;;;3.33;97.43;98199.63;4975535;28;20266;-92
2021/12/27 05:09:03;;;;;;;;;;;;;;;3.29;97.12;98200.66;4976144;28;19926;-89
2021/12/27 05:11:30;;;;;;;;;;;;;;;3.26;96.97;98196.41;4976303;28;19922;-83
2021/12/27 05:13:55;;;;;;;;;;;;;;;3.19;96.55;98187.09;4976083;28;20373;-89
2021/12/27 05:16:20;;;;;;;;;;;;;;;3.21;96.51;98182.63;4975974;28;19949;-82
2021/12/27 05:18:46;;;;;;;;;;;;;;;3.21;96.32;98185.25;4974825;28;19926;-83
2021/12/27 05:21:11;;;;;;;;;;;;;;;3.22;95.78;98181.75;4958550;28;19922;-83
2021/12/27 05:23:36;;;;;;;;;;;;;;;3.16;95.58;98181.97;4975948;28;19918;-83
2021/12/27 05:26:01;;;;;;;;;;;;;;;3.16;95.09;98175.84;4975688;28;19922;-87
2021/12/27 05:28:27;;;;;;;;;;;;;;;3.08;94.82;98171.78;4976352;28;20296;-83
2021/12/27 05:30:52;;;;;;;;;;;;;;;3.11;94.53;98175.19;4975985;28;19930;-84
2021/12/27 09:03:33;;;;;;;;;;;;;;;2.28;80.78;98080.63;4973731;28;19950;-86
2021/12/27 09:05:58;;;;;;;;;;;;;;;2.34;81.07;98076.91;4958681;28;19934;-86
2021/12/27 09:08:23;;;;;;;;;;;;;;;2.34;81.26;98075.13;4976033;28;19925;-86
2021/12/27 09:10:49;;;;;;;;;;;;;;;2.35;81.15;98079.47;4976539;28;20384;-85
2021/12/27 09:13:14;;;;;;;;;;;;;;;2.33;80.80;98073.44;4976039;28;19972;-85
2021/12/27 09:15:39;;;;;;;;;;;;;;;2.34;80.79;98080.34;4974883;28;19918;-88
2021/12/27 09:18:04;;;;;;;;;;;;;;;2.36;80.87;98078.56;4958476;28;19929;-85
2021/12/27 09:20:30;;;;;;;;;;;;;;;2.38;80.50;98073.28;4976512;28;20436;-90
2021/12/27 09:22:55;;;;;;;;;;;;;;;2.37;80.30;98071.56;4957829;28;19957;-85
2021/12/27 09:25:21;;;;;;;;;;;;;;;2.39;80.27;98067.13;4976029;28;19922;-85
2021/12/27 09:27:46;;;;;;;;;;;;;;;2.45;80.13;98073.91;4958555;28;19918;-84
2021/12/27 09:30:11;;;;;;;;;;;;;;;2.45;80.11;98076.50;4974466;28;19921;-86
2021/12/27 09:32:37;;;;;;;;;;;;;;;2.45;79.97;98079.97;4975663;28;19924;-86
2021/12/27 09:35:02;;;;;;;;;;;;;;;2.46;80.10;98073.00;4957813;28;19932;-86
2021/12/27 09:37:28;;;;;;;;;;;;;;;2.50;80.06;98074.56;4974909;28;19973;-89
2021/12/27 09:39:53;;;;;;;;;;;;;;;2.54;80.05;98076.19;4975601;28;19925;-86
2021/12/27 09:42:20;;;;;;;;;;;;;;;2.52;79.98;98072.75;4958499;28;19924;-89
2021/12/27 09:44:45;;;;;;;;;;;;;;;2.53;79.77;98069.22;4956749;28;19925;-88
2021/12/27 09:47:13;;;;;;;;;;;;;;;2.56;79.70;98066.50;4974842;28;19922;-88
2021/12/27 09:49:40;;;;;;;;;;;;;;;2.57;79.66;98064.72;4975722;28;20337;-90
2021/12/27 09:52:05;;;;;;;;;;;;;;;2.56;79.53;98056.03;4975356;28;19918;-90
2021/12/27 09:54:31;;;;;;;;;;;;;;;2.59;79.63;98061.16;4957236;28;20371;-90
2021/12/27 09:56:56;;;;;;;;;;;;;;;2.59;79.53;98055.94;4957762;28;19973;-87
2021/12/27 09:59:23;;;;;;;;;;;;;;;2.62;79.36;98058.44;4957961;28;20277;-87
2021/12/27 10:01:49;;;;;;;;;;;;;;;2.64;79.53;98059.22;4971659;28;20369;-88
2021/12/27 10:04:14;;;;;;;;;;;;;;;2.67;79.58;98053.88;4974473;28;19937;-87
2021/12/27 10:06:40;;;;;;;;;;;;;;;2.75;80.32;98045.72;4957552;28;19918;-90
2021/12/27 10:09:05;;;;;;;;;;;;;;;2.73;81.08;98043.19;4957848;28;19926;-88
2021/12/27 10:11:36;;;;;;;;;;;;;;;2.77;81.63;98040.44;4957029;28;19961;-91
2021/12/27 10:14:06;;;;;;;;;;;;;;;2.80;82.38;98045.56;4972025;28;20282;-89
2021/12/27 10:16:33;;;;;;;;;;;;;;;2.84;82.55;98036.66;4967510;28;19957;-88
2021/12/27 10:19:00;;;;;;;;;;;;;;;2.86;82.58;98042.72;4972697;28;19918;-87
2021/12/27 10:21:25;;;;;;;;;;;;;;;2.89;82.71;98035.59;4956973;28;19922;-90
2021/12/27 10:24:13;;;;;;;;;;;;;;;2.87;82.66;98036.53;4971726;28;20009;-88
2021/12/27 10:26:39;;;;;;;;;;;;;;;2.90;82.54;98041.66;4972854;28;20365;-90
2021/12/27 10:29:05;;;;;;;;;;;;;;;2.91;82.63;98035.53;4957025;28;19980;-87
2021/12/27 10:31:48;;;;;;;;;;;;;;;2.92;82.65;98029.38;4972159;28;19914;-85
2021/12/27 10:34:13;;;;;;;;;;;;;;;2.93;82.62;98036.31;4973860;28;20004;-89
2021/12/27 10:36:55;;;;;;;;;;;;;;;2.95;82.66;98029.22;4973158;28;19922;-84
2021/12/27 10:39:20;;;;;;;;;;;;;;;2.97;82.68;98019.59;4974293;28;20289;-85
2021/12/27 10:41:46;;;;;;;;;;;;;;;2.96;82.59;98020.47;4956876;28;19937;-88
2021/12/27 10:44:12;;;;;;;;;;;;;;;3.01;82.55;98022.91;4974470;28;20405;-85
2021/12/27 10:46:38;;;;;;;;;;;;;;;2.99;82.18;98024.75;4955895;28;19922;-84
2021/12/27 10:49:03;;;;;;;;;;;;;;;3.02;81.95;98028.09;4973035;28;19918;-83
2021/12/27 10:51:28;;;;;;;;;;;;;;;3.01;81.88;98023.75;4972269;28;19934;-88
2021/12/27 10:53:55;;;;;;;;;;;;;;;3.02;81.73;98016.78;4956737;28;19929;-89
2021/12/27 10:56:22;;;;;;;;;;;;;;;3.03;81.71;98016.72;4972150;28;19929;-85
2021/12/27 10:58:55;;;;;;;;;;;;;;;3.07;81.71;98014.81;4956571;28;20069;-84
2021/12/27 11:01:21;;;;;;;;;;;;;;;3.13;81.72;98016.31;4972210;28;20321;-91
2021/12/27 11:03:48;;;;;;;;;;;;;;;3.09;81.61;98021.72;4956469;28;20274;-85
2021/12/27 11:06:14;;;;;;;;;;;;;;;3.13;81.69;98021.56;4972642;28;19918;-85
2021/12/27 11:08:45;;;;;;;;;;;;;;;3.13;81.67;98022.44;4973951;28;20258;-88
2021/12/27 11:11:10;;;;;;;;;;;;;;;3.16;81.71;98016.19;4956485;28;20115;-85
2021/12/27 11:13:36;;;;;;;;;;;;;;;3.20;81.73;98018.63;4956310;28;20368;-88
2021/12/27 11:16:01;;;;;;;;;;;;;;;3.21;81.69;98022.13;4954603;28;19921;-90
2021/12/27 11:18:27;;;;;;;;;;;;;;;3.21;81.73;98006.41;4956096;28;19926;-85
2021/12/27 11:20:54;;;;;;;;;;;;;;;3.24;81.87;98007.13;4971944;28;19922;-85
2021/12/27 11:23:21;;;;;;;;;;;;;;;3.24;81.83;98003.69;4955735;28;20352;-90
2021/12/27 11:25:46;;;;;;;;;;;;;;;3.26;81.78;98007.06;4970418;28;19921;-84
2021/12/27 11:28:26;;;;;;;;;;;;;;;3.27;81.79;98014.00;4955675;28;19980;-89
2021/12/27 11:30:51;;;;;;;;;;;;;;;3.32;81.74;98004.19;4970855;28;19922;-85
2021/12/27 11:33:20;;;;;;;;;;;;;;;3.34;81.65;98004.97;4972606;28;19973;-87
2021/12/27 11:35:51;;;;;;;;;;;;;;;3.35;81.68;98009.31;4955790;28;20026;-86
2021/12/27 11:38:30;;;;;;;;;;;;;;;3.36;81.55;98005.75;4953677;28;20016;-85
2021/12/27 11:40:56;;;;;;;;;;;;;;;3.36;81.56;98005.75;4970989;28;20424;-89
2021/12/27 11:43:22;;;;;;;;;;;;;;;3.41;81.53;97997.72;4953919;28;19926;-88
2021/12/27 11:45:57;;;;;;;;;;;;;;;3.40;81.66;97993.41;4954687;28;20408;-86
2021/12/27 11:48:23;;;;;;;;;;;;;;;3.41;81.67;97988.09;4972443;28;19938;-86
2021/12/27 11:50:58;;;;;;;;;;;;;;;3.44;81.65;97985.34;4971882;28;20022;-86
2021/12/27 11:53:30;;;;;;;;;;;;;;;3.47;81.72;97978.28;4971655;28;20385;-84
2021/12/27 11:55:55;;;;;;;;;;;;;;;3.46;81.67;97982.66;4971987;28;19922;-85
2021/12/27 11:58:30;;;;;;;;;;;;;;;3.49;81.74;97985.13;4972262;28;19926;-87
2021/12/27 12:00:55;;;;;;;;;;;;;;;3.51;81.77;97980.72;4969853;28;20009;-85
2021/12/27 12:03:34;;;;;;;;;;;;;;;3.53;81.76;97967.56;4972019;28;20041;-87
2021/12/27 12:05:59;;;;;;;;;;;;;;;3.53;81.76;97962.31;4971813;28;19935;-85
2021/12/27 12:08:27;;;;;;;;;;;;;;;3.55;81.86;97963.94;4973044;28;19989;-84
2021/12/27 12:10:53;;;;;;;;;;;;;;;3.59;82.02;97962.88;4972022;28;19925;-88
2021/12/27 12:13:21;;;;;;;;;;;;;;;3.59;81.94;97957.66;4971927;28;19965;-85
2021/12/27 12:16:00;;;;;;;;;;;;;;;3.63;82.23;97953.97;4970794;28;19970;-87
2021/12/27 12:18:26;;;;;;;;;;;;;;;3.66;81.92;97953.00;4970803;28;19977;-84
2021/12/27 12:20:51;;;;;;;;;;;;;;;3.65;81.99;97951.28;4955454;28;20322;-84
2021/12/27 12:23:17;;;;;;;;;;;;;;;3.67;82.18;97944.22;4971323;28;19929;-84
2021/12/27 12:25:42;;;;;;;;;;;;;;;3.69;82.29;97938.91;4972786;28;19926;-86
2021/12/27 12:28:09;;;;;;;;;;;;;;;3.71;82.53;97937.91;4973129;28;19926;-85
2021/12/27 12:30:38;;;;;;;;;;;;;;;3.73;82.48;97950.94;4970883;28;19926;-84
2021/12/27 12:33:03;;;;;;;;;;;;;;;3.75;82.46;97946.47;4971031;28;20286;-86
2021/12/27 12:35:37;;;;;;;;;;;;;;;3.79;82.70;97942.81;4971930;28;19929;-85
2021/12/27 12:38:12;;;;;;;;;;;;;;;3.79;82.63;97948.91;4972501;28;19988;-84
2021/12/27 12:40:37;;;;;;;;;;;;;;;3.80;82.97;97944.53;4958003;28;19926;-88
2021/12/27 12:43:02;;;;;;;;;;;;;;;3.82;83.12;97945.31;4975393;28;19949;-88
2021/12/27 12:45:32;;;;;;;;;;;;;;;3.86;83.31;97944.25;4975015;28;20301;-85
2021/12/27 12:47:57;;;;;;;;;;;;;;;3.87;83.39;97940.69;4975840;28;19933;-85
2021/12/27 12:50:23;;;;;;;;;;;;;;;3.90;83.55;97939.72;4973342;28;19922;-85
2021/12/27 12:52:52;;;;;;;;;;;;;;;4.05;84.07;97933.75;4960090;28;19926;-86
2021/12/27 12:55:22;;;;;;;;;;;;;;;4.22;85.29;97940.03;4956654;28;19930;-85
2021/12/27 12:57:48;;;;;;;;;;;;;;;4.30;86.70;97933.47;4958574;28;19936;-86
2021/12/27 13:00:14;;;;;;;;;;;;;;;4.33;87.86;97937.75;4956556;28;19926;-86
2021/12/27 13:02:41;;;;;;;;;;;;;;;4.35;88.75;97935.88;4953417;28;19929;-85
2021/12/27 13:05:08;;;;;;;;;;;;;;;4.37;89.41;97931.41;4958342;28;19926;-88
2021/12/27 13:07:49;;;;;;;;;;;;;;;4.34;90.11;97934.19;4973579;28;19922;-85
2021/12/27 13:10:25;;;;;;;;;;;;;;;4.27;90.47;97925.75;4974116;28;19922;-85
2021/12/27 13:12:51;;;;;;;;;;;;;;;4.12;90.85;97922.09;4974080;28;19929;-87
2021/12/27 13:15:17;;;;;;;;;;;;;;;4.01;91.04;97911.25;4974129;28;20033;-88
2021/12/27 13:17:43;;;;;;;;;;;;;;;3.91;91.34;97910.84;4975660;28;19922;-87
2021/12/27 13:20:15;;;;;;;;;;;;;;;3.79;91.79;97911.38;4957282;28;19937;-88
2021/12/27 13:22:47;;;;;;;;;;;;;;;3.74;92.61;97908.97;4973025;28;19969;-87
2021/12/27 13:25:13;;;;;;;;;;;;;;;3.76;93.96;97914.13;4958143;28;19918;-88
2021/12/27 13:27:39;;;;;;;;;;;;;;;3.76;95.52;97917.59;4957411;28;19926;-90
2021/12/27 13:30:09;;;;;;;;;;;;;;;3.89;97.41;97924.91;4973134;28;19937;-87
2021/12/27 13:32:34;;;;;;;;;;;;;;;4.08;100.00;97923.13;4957673;28;19922;-90
2021/12/27 13:35:00;;;;;;;;;;;;;;;4.31;100.00;97918.63;4969613;28;19928;-91
2021/12/27 13:37:25;;;;;;;;;;;;;;;4.49;100.00;97922.13;4974258;28;19922;-89
2021/12/27 13:40:02;;;;;;;;;;;;;;;4.62;100.00;97922.41;4958051;28;19922;-90
2021/12/27 13:42:27;;;;;;;;;;;;;;;4.72;100.00;97911.38;4974847;28;19922;-88
2021/12/27 13:45:05;;;;;;;;;;;;;;;4.80;100.00;97913.59;4974118;28;20408;-87
2021/12/27 13:47:33;;;;;;;;;;;;;;;4.86;100.00;97922.97;4956870;28;20272;-90
2021/12/27 13:49:59;;;;;;;;;;;;;;;4.91;100.00;97908.72;4972665;28;19926;-90
2021/12/27 13:52:24;;;;;;;;;;;;;;;4.98;100.00;97913.63;4957940;28;19928;-89
2021/12/27 13:54:53;;;;;;;;;;;;;;;5.03;100.00;97906.41;4975094;28;20282;-88
2021/12/27 13:57:19;;;;;;;;;;;;;;;5.06;100.00;97903.63;4969554;28;19977;-86
2021/12/27 13:59:49;;;;;;;;;;;;;;;5.09;100.00;97903.47;4973842;28;19930;-88
2021/12/27 14:02:15;;;;;;;;;;;;;;;5.19;100.00;97899.44;4955124;28;19922;-86
2021/12/27 14:04:40;;;;;;;;;;;;;;;5.19;100.00;97899.44;4957091;28;19929;-86
2021/12/27 14:07:07;;;;;;;;;;;;;;;5.23;100.00;97900.13;4955331;28;19922;-86
2021/12/27 14:09:34;;;;;;;;;;;;;;;5.26;100.00;97885.06;4970601;28;20385;-87
2021/12/27 14:12:04;;;;;;;;;;;;;;;5.28;100.00;97888.47;4974406;28;19932;-86
2021/12/27 14:14:56;;;;;;;;;;;;;;;5.33;100.00;97879.47;4966464;28;19926;-89
2021/12/27 14:17:26;;;;;;;;;;;;;;;5.35;100.00;97880.28;4957160;28;19958;-89
2021/12/27 14:20:00;;;;;;;;;;;;;;;5.39;100.00;97881.78;4973407;28;19922;-85
2021/12/27 14:22:26;;;;;;;;;;;;;;;5.42;100.00;97885.09;4963778;28;20013;-86
2021/12/27 14:24:51;;;;;;;;;;;;;;;5.45;100.00;97887.56;4956370;28;19926;-90
2021/12/27 14:27:25;;;;;;;;;;;;;;;5.03;100.00;97890.66;4972830;28;19969;-91
2021/12/27 14:30:09;;;;;;;;;;;;;;;4.23;100.00;97895.38;4962867;28;19926;-88
2021/12/27 14:32:35;;;;;;;;;;;;;;;4.07;100.00;97892.63;4973164;28;19932;-90
2021/12/27 14:35:02;;;;;;;;;;;;;;;3.95;100.00;97891.41;4955373;28;20012;-90
2021/12/27 14:37:27;;;;;;;;;;;;;;;3.90;100.00;97896.03;4974218;28;20376;-90
2021/12/27 14:39:53;;;;;;;;;;;;;;;3.79;100.00;97903.53;4974416;28;20012;-90
2021/12/27 14:42:21;;;;;;;;;;;;;;;3.76;100.00;97901.03;4948646;28;19988;-91
2021/12/27 14:44:46;;;;;;;;;;;;;;;3.75;100.00;97908.06;4957046;28;19922;-85
2021/12/27 14:47:12;;;;;;;;;;;;;;;3.64;99.41;97907.69;4972995;28;20078;-88
2021/12/27 14:49:38;;;;;;;;;;;;;;;3.64;98.80;97902.44;4956934;28;19948;-86
2021/12/27 14:52:04;;;;;;;;;;;;;;;3.62;98.45;97893.78;4974171;28;19932;-86
2021/12/27 14:54:29;;;;;;;;;;;;;;;3.57;97.99;97901.00;4972364;28;20432;-87
2021/12/27 14:56:55;;;;;;;;;;;;;;;3.43;97.12;97893.75;4956835;28;19918;-86
2021/12/27 14:59:20;;;;;;;;;;;;;;;3.49;96.44;97900.50;4955744;28;19922;-84
2021/12/27 15:01:45;;;;;;;;;;;;;;;3.51;96.04;97902.16;4972306;28;19922;-92
2021/12/27 15:04:10;;;;;;;;;;;;;;;3.48;95.60;97901.41;4956926;28;19918;-93
2021/12/27 15:06:36;;;;;;;;;;;;;;;3.43;94.76;97899.88;4957159;28;20809;-93
2021/12/27 15:09:01;;;;;;;;;;;;;;;3.42;94.34;97902.53;4974074;28;19926;-91
2021/12/27 15:11:26;;;;;;;;;;;;;;;3.39;94.03;97900.06;4973774;28;20389;-92
2021/12/27 15:13:51;;;;;;;;;;;;;;;3.37;93.47;97894.88;4974281;28;19925;-91
2021/12/27 15:16:17;;;;;;;;;;;;;;;3.31;92.82;97897.78;4972807;28;20460;-89
2021/12/27 15:18:42;;;;;;;;;;;;;;;3.31;92.55;97900.38;4974085;28;19919;-91
2021/12/27 15:21:08;;;;;;;;;;;;;;;3.25;92.23;97901.50;4973438;28;19959;-86
2021/12/27 15:23:33;;;;;;;;;;;;;;;3.28;92.38;97897.91;4955406;28;20025;-89
2021/12/27 15:25:59;;;;;;;;;;;;;;;3.27;91.70;97898.81;4973293;28;19922;-89
2021/12/27 15:28:24;;;;;;;;;;;;;;;3.26;91.58;97907.59;4973758;28;19918;-88
2021/12/27 15:30:54;;;;;;;;;;;;;;;3.24;91.31;97914.69;4972616;28;20013;-91
2021/12/27 15:33:19;;;;;;;;;;;;;;;3.20;91.00;97913.94;4973136;28;19922;-91
2021/12/27 15:35:45;;;;;;;;;;;;;;;3.22;90.69;97911.25;4973003;28;19985;-91
2021/12/27 15:38:10;;;;;;;;;;;;;;;3.16;90.26;97908.88;4973618;28;19918;-89
2021/12/27 15:40:37;;;;;;;;;;;;;;;3.10;90.23;97915.25;4955547;28;20396;-88
2021/12/27 15:43:03;;;;;;;;;;;;;;;3.18;89.92;97910.53;4973240;28;19922;-89
2021/12/27 15:45:28;;;;;;;;;;;;;;;3.12;89.78;97916.03;4971755;28;20305;-90
2021/12/27 15:47:53;;;;;;;;;;;;;;;3.08;89.60;97922.31;4973535;28;19922;-87
2021/12/27 15:50:19;;;;;;;;;;;;;;;3.06;89.41;97921.53;4973321;28;19918;-88
2021/12/27 15:52:44;;;;;;;;;;;;;;;3.09;89.62;97927.50;4973203;28;19918;-89
2021/12/27 15:55:11;;;;;;;;;;;;;;;3.07;89.30;97918.84;4972620;28;19933;-88
2021/12/27 15:57:37;;;;;;;;;;;;;;;3.07;89.15;97928.47;4968686;28;19926;-88
2021/12/27 16:00:06;;;;;;;;;;;;;;;3.04;88.82;97923.34;4971698;28;20350;-88
2021/12/27 16:02:31;;;;;;;;;;;;;;;3.02;88.60;97918.19;4972771;28;19922;-90
2021/12/27 16:04:57;;;;;;;;;;;;;;;2.98;88.46;97916.59;4973376;28;19989;-89
2021/12/27 16:07:22;;;;;;;;;;;;;;;2.97;88.28;97916.66;4973221;28;19953;-92
2021/12/27 16:09:47;;;;;;;;;;;;;;;2.83;88.47;97919.88;4973107;28;20016;-90
2021/12/27 16:12:12;;;;;;;;;;;;;;;2.77;88.62;97920.97;4954353;28;20337;-86
2021/12/27 16:14:38;;;;;;;;;;;;;;;2.71;88.71;97919.47;4972634;28;19934;-88
2021/12/27 16:17:04;;;;;;;;;;;;;;;2.73;88.60;97922.88;4953634;28;19921;-86
2021/12/27 16:19:29;;;;;;;;;;;;;;;2.71;88.54;97923.81;4954898;28;19937;-89
2021/12/27 16:21:55;;;;;;;;;;;;;;;2.68;88.54;97931.78;4972975;28;19918;-87
2021/12/27 16:24:21;;;;;;;;;;;;;;;2.68;88.52;97932.66;4972824;28;19922;-85
2021/12/27 16:26:47;;;;;;;;;;;;;;;2.67;88.56;97928.34;4972454;28;19933;-92
2021/12/27 16:29:12;;;;;;;;;;;;;;;2.66;88.47;97937.09;4972655;28;19937;-90
2021/12/27 16:31:38;;;;;;;;;;;;;;;2.66;88.34;97926.63;4971662;28;20361;-90
2021/12/27 16:34:05;;;;;;;;;;;;;;;2.63;88.43;97939.84;4972102;28;19932;-90
2021/12/27 16:36:31;;;;;;;;;;;;;;;2.59;88.23;97937.41;4972097;28;19929;-88
2021/12/27 16:38:56;;;;;;;;;;;;;;;2.60;88.17;97937.34;4972063;28;19926;-91
2021/12/27 16:41:21;;;;;;;;;;;;;;;2.57;88.13;97937.47;4972352;28;19930;-90
2021/12/27 16:43:46;;;;;;;;;;;;;;;2.56;88.18;97935.75;4972602;28;19918;-91
2021/12/27 16:46:12;;;;;;;;;;;;;;;2.60;88.24;97939.97;4971518;28;19937;-91
2021/12/27 16:48:37;;;;;;;;;;;;;;;2.57;88.12;97937.47;4965113;28;19989;-89
2021/12/27 16:51:03;;;;;;;;;;;;;;;2.57;88.14;97940.09;4955107;28;19924;-90
2021/12/27 16:53:31;;;;;;;;;;;;;;;2.59;87.93;97938.25;4954844;28;20282;-89
2021/12/27 16:55:57;;;;;;;;;;;;;;;2.58;87.87;97940.94;4972134;28;19922;-91
2021/12/27 16:58:22;;;;;;;;;;;;;;;2.55;87.57;97941.91;4955076;28;19918;-91
2021/12/27 17:00:47;;;;;;;;;;;;;;;2.57;87.54;97940.09;4953807;28;19919;-91
2021/12/27 17:03:13;;;;;;;;;;;;;;;2.57;87.46;97940.09;4955426;28;20397;-90
2021/12/27 17:05:39;;;;;;;;;;;;;;;2.54;87.32;97942.81;4955327;28;19921;-91
2021/12/27 17:08:05;;;;;;;;;;;;;;;2.53;87.04;97943.72;4955218;28;19965;-87
2021/12/27 17:10:31;;;;;;;;;;;;;;;2.50;86.88;97943.84;4955980;28;19969;-88